createdAt,value
2019-03-17T00:01:21.000Z,19.69
2019-03-17T00:06:24.705Z,19.64
2019-03-17T00:11:28.262Z,19.59
2019-03-17T00:16:31.822Z,19.54
2019-03-17T00:21:35.448Z,19.47
2019-03-17T00:26:39.034Z,19.44
2019-03-17T00:31:42.595Z,19.37
2019-03-17T00:36:46.523Z,19.31
2019-03-17T00:41:50.134Z,19.34
2019-03-17T00:46:53.691Z,19.38
2019-03-17T00:51:57.330Z,20.56
2019-03-17T00:57:00.857Z,21.44
2019-03-17T01:02:04.786Z,22.11
2019-03-17T01:07:08.464Z,22.69
2019-03-17T01:12:12.010Z,22.84
2019-03-17T01:17:15.578Z,23.05
2019-03-17T01:22:19.114Z,23.08
2019-03-17T01:27:22.676Z,22.72
2019-03-17T01:32:26.255Z,22.56
2019-03-17T01:37:29.805Z,22.30
2019-03-17T01:42:33.366Z,22.37
2019-03-17T01:47:36.933Z,22.27
2019-03-17T01:52:40.481Z,22.40
2019-03-17T01:57:44.083Z,22.52
2019-03-17T02:02:47.603Z,21.83
2019-03-17T02:07:51.185Z,21.74
2019-03-17T02:12:54.700Z,21.21
2019-03-17T02:17:58.250Z,20.88
2019-03-17T02:23:01.778Z,20.62
2019-03-17T02:28:05.341Z,20.72
2019-03-17T02:33:08.911Z,21.10
2019-03-17T02:38:12.500Z,21.80
2019-03-17T02:43:16.047Z,22.11
2019-03-17T02:48:19.617Z,22.59
2019-03-17T02:53:23.185Z,23.07
2019-03-17T02:58:26.731Z,23.44
2019-03-17T03:03:30.302Z,23.41
2019-03-17T03:08:33.921Z,23.10
2019-03-17T03:18:40.150Z,22.67
2019-03-17T03:23:43.749Z,22.60
2019-03-17T03:28:47.285Z,22.92
2019-03-17T03:33:50.885Z,23.14
2019-03-17T03:38:54.477Z,22.81
2019-03-17T03:43:58.064Z,22.27
2019-03-17T03:49:01.610Z,22.00
2019-03-17T03:54:05.696Z,21.79
2019-03-17T03:59:09.245Z,21.06
2019-03-17T04:04:12.812Z,20.82
2019-03-17T04:09:17.239Z,20.54
2019-03-17T04:14:20.783Z,20.89
2019-03-17T04:19:24.350Z,21.87
2019-03-17T04:24:27.894Z,22.06
2019-03-17T04:29:31.430Z,22.49
2019-03-17T04:34:35.096Z,22.54
2019-03-17T04:39:38.643Z,22.64
2019-03-17T04:44:42.206Z,22.48
2019-03-17T04:49:45.774Z,22.23
2019-03-17T04:54:49.330Z,22.12
2019-03-17T04:59:52.893Z,22.01
2019-03-17T05:04:56.597Z,21.87
2019-03-17T05:10:00.364Z,22.33
2019-03-17T05:15:05.649Z,22.11
2019-03-17T05:20:10.285Z,22.11
2019-03-17T05:25:13.962Z,21.76
2019-03-17T05:30:17.500Z,21.56
2019-03-17T05:35:21.057Z,21.33
2019-03-17T05:40:24.623Z,21.60
2019-03-17T05:45:28.172Z,21.88
2019-03-17T05:50:31.731Z,22.11
2019-03-17T05:55:35.247Z,22.63
2019-03-17T06:00:38.810Z,23.34
2019-03-17T06:05:42.320Z,23.39
2019-03-17T06:10:45.883Z,23.89
2019-03-17T06:15:49.443Z,23.55
2019-03-17T06:20:52.991Z,23.28
2019-03-17T06:25:56.525Z,23.27
2019-03-17T06:31:00.088Z,23.22
2019-03-17T06:36:03.652Z,23.19
2019-03-17T06:41:07.193Z,23.10
2019-03-17T06:46:10.754Z,22.80
2019-03-17T06:51:14.329Z,22.59
2019-03-17T06:56:17.897Z,22.49
2019-03-17T07:01:21.460Z,22.47
2019-03-17T07:06:25.009Z,22.52
2019-03-17T07:11:28.578Z,22.71
2019-03-17T07:16:32.121Z,22.78
2019-03-17T07:21:35.683Z,22.97
2019-03-17T07:26:39.333Z,23.27
2019-03-17T07:31:42.877Z,23.59
2019-03-17T07:36:46.415Z,23.43
2019-03-17T07:41:50.195Z,23.93
2019-03-17T07:46:53.724Z,23.86
2019-03-17T07:51:57.295Z,23.80
2019-03-17T07:57:00.876Z,23.73
2019-03-17T08:02:04.713Z,23.90
2019-03-17T08:07:08.255Z,23.75
2019-03-17T08:12:11.827Z,23.80
2019-03-17T08:17:15.396Z,23.84
2019-03-17T08:22:19.080Z,23.60
2019-03-17T08:27:22.631Z,23.56
2019-03-17T08:32:26.200Z,23.41
2019-03-17T08:37:29.761Z,23.36
2019-03-17T08:42:34.248Z,23.25
2019-03-17T08:47:37.808Z,23.21
2019-03-17T08:52:41.488Z,23.19
2019-03-17T08:57:45.045Z,23.19
2019-03-17T09:02:48.592Z,23.19
2019-03-17T09:07:52.159Z,23.15
2019-03-17T09:12:55.708Z,23.11
2019-03-17T09:17:59.271Z,23.31
2019-03-17T09:23:03.240Z,23.06
2019-03-17T09:28:06.966Z,23.13
2019-03-17T09:33:10.511Z,23.26
2019-03-17T09:38:14.036Z,23.19
2019-03-17T09:43:17.619Z,23.21
2019-03-17T09:48:21.136Z,23.19
2019-03-17T09:53:24.701Z,23.18
2019-03-17T09:58:28.266Z,23.17
2019-03-17T10:03:31.813Z,23.16
2019-03-17T10:08:35.360Z,23.15
2019-03-17T10:13:38.950Z,23.11
2019-03-17T10:18:42.507Z,23.08
2019-03-17T10:23:46.077Z,23.06
2019-03-17T10:28:49.763Z,23.07
2019-03-17T10:33:53.287Z,22.98
2019-03-17T10:38:56.891Z,22.98
2019-03-17T10:44:00.420Z,22.93
2019-03-17T10:49:04.841Z,22.88
2019-03-17T10:54:08.404Z,22.81
2019-03-17T10:59:11.941Z,22.67
2019-03-17T11:04:15.513Z,22.66
2019-03-17T11:09:25.120Z,22.63
2019-03-17T11:14:24.322Z,22.58
2019-03-17T11:19:27.933Z,22.56
2019-03-17T11:24:31.470Z,22.55
2019-03-17T11:29:35.047Z,22.55
2019-03-17T11:34:38.587Z,22.48
2019-03-17T11:39:42.185Z,22.42
2019-03-17T11:44:45.734Z,22.41
2019-03-17T11:49:49.310Z,22.40
2019-03-17T11:54:52.839Z,22.36
2019-03-17T11:59:56.404Z,22.35
2019-03-17T12:04:59.942Z,22.32
2019-03-17T12:10:04.909Z,22.30
2019-03-17T12:15:26.093Z,22.32
2019-03-17T12:20:29.618Z,22.28
2019-03-17T12:25:33.180Z,22.23
2019-03-17T12:30:36.777Z,22.21
2019-03-17T12:35:40.294Z,22.22
2019-03-17T12:40:43.867Z,22.37
2019-03-17T12:45:47.440Z,22.66
2019-03-17T12:50:51.013Z,23.20
2019-03-17T12:55:54.558Z,23.60
2019-03-17T13:00:58.135Z,24.10
2019-03-17T13:06:01.706Z,24.19
2019-03-17T13:11:05.325Z,24.36
2019-03-17T13:16:08.830Z,24.19
2019-03-17T13:21:12.382Z,23.92
2019-03-17T13:26:15.951Z,23.93
2019-03-17T13:31:20.555Z,23.64
2019-03-17T13:36:24.230Z,23.50
2019-03-17T13:41:28.060Z,23.46
2019-03-17T13:46:31.616Z,23.37
2019-03-17T13:51:35.155Z,23.40
2019-03-17T13:56:38.728Z,23.46
2019-03-17T14:01:42.259Z,23.27
2019-03-17T14:06:45.806Z,23.14
2019-03-17T14:11:49.344Z,23.09
2019-03-17T14:16:52.947Z,22.96
2019-03-17T14:21:56.487Z,22.93
2019-03-17T14:27:00.025Z,22.90
2019-03-17T14:32:03.597Z,22.83
2019-03-17T14:37:07.230Z,22.89
2019-03-17T14:42:10.750Z,22.80
2019-03-17T14:47:14.320Z,22.87
2019-03-17T14:52:17.957Z,22.85
2019-03-17T14:57:21.620Z,22.76
2019-03-17T15:02:25.159Z,22.71
2019-03-17T15:07:28.700Z,22.70
2019-03-17T15:12:32.267Z,22.71
2019-03-17T15:17:35.917Z,22.66
2019-03-17T15:22:39.477Z,22.62
2019-03-17T15:27:43.025Z,22.80
2019-03-17T15:32:46.584Z,23.40
2019-03-17T15:37:50.156Z,24.26
2019-03-17T15:42:53.845Z,24.63
2019-03-17T15:47:57.400Z,24.76
2019-03-17T15:53:00.937Z,24.77
2019-03-17T15:58:04.793Z,24.27
2019-03-17T16:03:08.345Z,24.00
2019-03-17T16:08:11.909Z,23.80
2019-03-17T16:13:15.452Z,23.77
2019-03-17T16:18:19.017Z,23.57
2019-03-17T16:23:22.661Z,23.52
2019-03-17T16:28:26.189Z,23.56
2019-03-17T16:33:29.727Z,23.38
2019-03-17T16:38:33.270Z,23.36
2019-03-17T16:43:36.810Z,23.35
2019-03-17T16:48:40.368Z,23.08
2019-03-17T16:53:43.941Z,23.01
2019-03-17T16:58:47.517Z,22.94
2019-03-17T17:03:51.085Z,22.80
2019-03-17T17:08:54.624Z,22.78
2019-03-17T17:13:58.155Z,22.55
2019-03-17T17:19:01.722Z,22.55
2019-03-17T17:24:05.286Z,22.52
2019-03-17T17:29:08.831Z,22.43
2019-03-17T17:34:12.397Z,22.41
2019-03-17T17:39:15.937Z,22.57
2019-03-17T17:44:19.505Z,23.06
2019-03-17T17:49:23.053Z,23.41
2019-03-17T17:54:26.620Z,23.86
2019-03-17T17:59:30.145Z,24.75
2019-03-17T18:04:33.703Z,24.92
2019-03-17T18:09:37.243Z,24.25
2019-03-17T18:14:40.790Z,23.95
2019-03-17T18:19:44.339Z,23.90
2019-03-17T18:24:47.900Z,24.01
2019-03-17T18:29:51.475Z,23.90
2019-03-17T18:34:55.079Z,23.65
2019-03-17T18:39:58.561Z,23.61
2019-03-17T18:45:02.092Z,23.28
2019-03-17T18:50:19.554Z,23.20
2019-03-17T18:55:15.052Z,23.17
2019-03-17T19:00:19.409Z,22.90
2019-03-17T19:05:23.005Z,22.71
2019-03-17T19:10:26.630Z,22.52
2019-03-17T19:15:30.311Z,22.45
2019-03-17T19:20:33.845Z,22.43
2019-03-17T19:25:37.383Z,22.28
2019-03-17T19:30:41.026Z,22.14
2019-03-17T19:35:44.562Z,22.07
2019-03-17T19:40:48.127Z,21.89
2019-03-17T19:45:51.665Z,21.74
2019-03-17T19:50:55.225Z,22.03
2019-03-17T19:55:58.828Z,22.53
2019-03-17T20:01:02.468Z,23.14
2019-03-17T20:06:06.058Z,23.65
2019-03-17T20:11:09.600Z,23.71
2019-03-17T20:16:13.161Z,23.54
2019-03-17T20:21:16.700Z,23.53
2019-03-17T20:26:20.255Z,23.55
2019-03-17T20:31:23.799Z,23.26
2019-03-17T20:36:27.369Z,23.11
2019-03-17T20:41:30.910Z,23.16
2019-03-17T20:46:34.486Z,22.90
2019-03-17T20:51:38.049Z,22.86
2019-03-17T20:56:41.629Z,22.62
2019-03-17T21:01:45.172Z,22.15
2019-03-17T21:06:48.741Z,22.15
2019-03-17T21:11:52.311Z,22.03
2019-03-17T21:16:56.177Z,21.89
2019-03-17T21:21:59.728Z,21.76
2019-03-17T21:27:03.298Z,21.43
2019-03-17T21:32:06.922Z,21.17
2019-03-17T21:37:10.514Z,20.98
2019-03-17T21:42:14.064Z,20.89
2019-03-17T21:47:17.596Z,20.74
2019-03-17T21:52:21.135Z,20.65
2019-03-17T21:57:26.557Z,20.67
2019-03-17T22:02:30.086Z,20.66
2019-03-17T22:07:33.659Z,20.63
2019-03-17T22:12:37.317Z,20.50
2019-03-17T22:17:41.166Z,20.55
2019-03-17T22:22:44.727Z,20.51
2019-03-17T22:27:48.263Z,20.50
2019-03-17T22:32:51.813Z,20.47
2019-03-17T22:37:55.774Z,20.41
2019-03-17T22:42:59.312Z,20.41
2019-03-17T22:48:02.883Z,20.27
2019-03-17T22:53:06.441Z,20.24
2019-03-17T22:58:10.048Z,20.25
2019-03-17T23:03:14.925Z,20.29
2019-03-17T23:08:18.511Z,20.27
2019-03-17T23:13:22.022Z,20.24
2019-03-17T23:18:25.880Z,20.28
2019-03-17T23:23:29.422Z,20.26
2019-03-17T23:28:32.968Z,20.25
2019-03-17T23:33:36.707Z,20.27
2019-03-17T23:38:40.434Z,20.36
2019-03-17T23:43:44.013Z,21.58
2019-03-17T23:48:47.563Z,21.88
2019-03-17T23:53:51.096Z,22.28
2019-03-17T23:58:54.694Z,22.65
